KHRL/HRL METAR and TAF weather

Enter ICAO airport designator
Station Type Date Time Source
KHRL METAR 2022/05/26 04:52 UTC NOAA

KHRL 260452Z AUTO 11005KT 10SM BKN075 24/22 A2993 RMK AO2 SLP135 T02390222


Station Type Date Time Source
KHRL Decoded METAR 2022/05/26 04:52 UTC NOAA

RIO GRANDE VALLEY, TX, United States (KHRL) 26-13N 97-39W 10M
May 26, 2022 - 12:52 AM EDT / 2022.05.26 0452 UTC
Wind: from the ESE (110 degrees) at 6 MPH (5 KT):0
Visibility: 10 mile(s):0
Sky conditions: mostly cloudy
Temperature: 75.0 F (23.9 C)
Dew Point: 72.0 F (22.2 C)
Relative Humidity: 90%
Pressure (altimeter): 29.93 in. Hg (1013 hPa)
ob: KHRL 260452Z AUTO 11005KT 10SM BKN075 24/22 A2993 RMK AO2 SLP135 T02390222
cycle: 5

Station Type Date Time Source
KHRL TAF 2022/05/26 06:22 UTC NOAA

TAF KHRL 260520Z 2606/2706 11005KT P6SM BKN070
FM261500 13013KT P6SM SCT050
FM270200 14008KT P6SM SCT030

Example: see airport list